sensor_id;sensor_type;location;lat;lon;timestamp;P1;durP1;ratioP1;P2;durP2;ratioP2
57810;SDS011;43640;47.550;7.590;2022-11-15T00:01:28;6.38;;;4.68;;
57810;SDS011;43640;47.550;7.590;2022-11-15T00:03:30;8.10;;;5.10;;
57810;SDS011;43640;47.550;7.590;2022-11-15T00:05:35;6.40;;;4.80;;
57810;SDS011;43640;47.550;7.590;2022-11-15T00:07:37;6.47;;;4.22;;
57810;SDS011;43640;47.550;7.590;2022-11-15T00:09:56;7.22;;;5.10;;
57810;SDS011;43640;47.550;7.590;2022-11-15T00:11:57;6.13;;;4.57;;
57810;SDS011;43640;47.550;7.590;2022-11-15T00:13:59;9.43;;;5.30;;
57810;SDS011;43640;47.550;7.590;2022-11-15T00:16:03;8.40;;;4.65;;
57810;SDS011;43640;47.550;7.590;2022-11-15T00:18:13;7.00;;;4.63;;
57810;SDS011;43640;47.550;7.590;2022-11-15T00:20:16;5.65;;;4.30;;
57810;SDS011;43640;47.550;7.590;2022-11-15T00:22:18;7.03;;;4.25;;
57810;SDS011;43640;47.550;7.590;2022-11-15T00:24:19;6.38;;;4.70;;
57810;SDS011;43640;47.550;7.590;2022-11-15T00:26:20;7.68;;;5.22;;
57810;SDS011;43640;47.550;7.590;2022-11-15T00:28:21;7.72;;;4.78;;
57810;SDS011;43640;47.550;7.590;2022-11-15T00:30:29;8.55;;;5.05;;
57810;SDS011;43640;47.550;7.590;2022-11-15T00:32:31;5.88;;;4.50;;
57810;SDS011;43640;47.550;7.590;2022-11-15T00:34:32;8.50;;;5.00;;
57810;SDS011;43640;47.550;7.590;2022-11-15T00:36:33;8.30;;;4.90;;
57810;SDS011;43640;47.550;7.590;2022-11-15T00:38:39;6.60;;;5.00;;
57810;SDS011;43640;47.550;7.590;2022-11-15T00:40:41;6.07;;;4.65;;
57810;SDS011;43640;47.550;7.590;2022-11-15T00:42:42;9.25;;;5.30;;
57810;SDS011;43640;47.550;7.590;2022-11-15T00:44:43;8.60;;;5.30;;
57810;SDS011;43640;47.550;7.590;2022-11-15T00:46:45;6.32;;;4.80;;
57810;SDS011;43640;47.550;7.590;2022-11-15T00:48:52;9.70;;;5.53;;
57810;SDS011;43640;47.550;7.590;2022-11-15T00:50:53;8.05;;;4.90;;
57810;SDS011;43640;47.550;7.590;2022-11-15T00:52:54;8.18;;;5.63;;
57810;SDS011;43640;47.550;7.590;2022-11-15T00:54:56;8.70;;;5.60;;
57810;SDS011;43640;47.550;7.590;2022-11-15T00:56:57;10.60;;;5.70;;
57810;SDS011;43640;47.550;7.590;2022-11-15T00:58:58;8.23;;;5.10;;
57810;SDS011;43640;47.550;7.590;2022-11-15T01:01:09;7.80;;;4.85;;
57810;SDS011;43640;47.550;7.590;2022-11-15T01:03:11;8.70;;;5.47;;
57810;SDS011;43640;47.550;7.590;2022-11-15T01:05:12;7.93;;;5.18;;
57810;SDS011;43640;47.550;7.590;2022-11-15T01:07:14;9.10;;;5.32;;
57810;SDS011;43640;47.550;7.590;2022-11-15T01:09:15;7.78;;;6.03;;
57810;SDS011;43640;47.550;7.590;2022-11-15T01:11:22;7.65;;;5.25;;
57810;SDS011;43640;47.550;7.590;2022-11-15T01:13:24;8.10;;;5.53;;
57810;SDS011;43640;47.550;7.590;2022-11-15T01:15:25;7.10;;;5.40;;
57810;SDS011;43640;47.550;7.590;2022-11-15T01:17:30;7.57;;;5.22;;
57810;SDS011;43640;47.550;7.590;2022-11-15T01:19:31;6.50;;;5.25;;
57810;SDS011;43640;47.550;7.590;2022-11-15T01:21:35;7.53;;;4.88;;
57810;SDS011;43640;47.550;7.590;2022-11-15T01:23:43;6.68;;;5.00;;
57810;SDS011;43640;47.550;7.590;2022-11-15T01:25:44;8.07;;;5.32;;
57810;SDS011;43640;47.550;7.590;2022-11-15T01:27:45;8.05;;;5.20;;
57810;SDS011;43640;47.550;7.590;2022-11-15T01:29:47;6.32;;;4.78;;
57810;SDS011;43640;47.550;7.590;2022-11-15T01:32:08;5.78;;;4.68;;
57810;SDS011;43640;47.550;7.590;2022-11-15T01:34:09;6.00;;;4.50;;
57810;SDS011;43640;47.550;7.590;2022-11-15T01:36:15;5.35;;;4.10;;
57810;SDS011;43640;47.550;7.590;2022-11-15T01:38:16;6.50;;;4.43;;
57810;SDS011;43640;47.550;7.590;2022-11-15T01:40:18;6.40;;;4.75;;
57810;SDS011;43640;47.550;7.590;2022-11-15T01:42:22;7.07;;;4.60;;
57810;SDS011;43640;47.550;7.590;2022-11-15T01:44:40;6.65;;;4.47;;
57810;SDS011;43640;47.550;7.590;2022-11-15T01:46:45;5.85;;;4.75;;
57810;SDS011;43640;47.550;7.590;2022-11-15T01:48:47;7.90;;;4.90;;
57810;SDS011;43640;47.550;7.590;2022-11-15T01:50:51;7.07;;;4.70;;
57810;SDS011;43640;47.550;7.590;2022-11-15T01:52:52;8.45;;;4.90;;
57810;SDS011;43640;47.550;7.590;2022-11-15T01:57:13;10.63;;;5.47;;
57810;SDS011;43640;47.550;7.590;2022-11-15T01:59:14;6.85;;;4.70;;
57810;SDS011;43640;47.550;7.590;2022-11-15T02:01:16;6.55;;;5.20;;
57810;SDS011;43640;47.550;7.590;2022-11-15T02:03:17;6.18;;;4.32;;
57810;SDS011;43640;47.550;7.590;2022-11-15T02:05:19;7.70;;;4.97;;
57810;SDS011;43640;47.550;7.590;2022-11-15T02:07:20;10.30;;;5.15;;
57810;SDS011;43640;47.550;7.590;2022-11-15T02:09:22;7.10;;;5.38;;
57810;SDS011;43640;47.550;7.590;2022-11-15T02:11:27;6.55;;;4.82;;
57810;SDS011;43640;47.550;7.590;2022-11-15T02:13:29;7.95;;;5.35;;
57810;SDS011;43640;47.550;7.590;2022-11-15T02:15:33;6.70;;;5.28;;
57810;SDS011;43640;47.550;7.590;2022-11-15T02:22:00;6.70;;;5.13;;
57810;SDS011;43640;47.550;7.590;2022-11-15T02:35:10;8.85;;;5.68;;
57810;SDS011;43640;47.550;7.590;2022-11-15T02:39:32;7.80;;;5.78;;
57810;SDS011;43640;47.550;7.590;2022-11-15T02:41:50;7.18;;;5.85;;
57810;SDS011;43640;47.550;7.590;2022-11-15T02:44:03;8.85;;;6.20;;
57810;SDS011;43640;47.550;7.590;2022-11-15T02:48:18;6.53;;;5.75;;
57810;SDS011;43640;47.550;7.590;2022-11-15T02:50:29;6.93;;;5.30;;
57810;SDS011;43640;47.550;7.590;2022-11-15T02:52:32;9.00;;;5.80;;
57810;SDS011;43640;47.550;7.590;2022-11-15T02:54:34;5.18;;;4.53;;
57810;SDS011;43640;47.550;7.590;2022-11-15T02:56:35;8.23;;;5.70;;
57810;SDS011;43640;47.550;7.590;2022-11-15T03:07:56;7.72;;;5.63;;
57810;SDS011;43640;47.550;7.590;2022-11-15T03:10:14;7.63;;;5.43;;
57810;SDS011;43640;47.550;7.590;2022-11-15T03:12:23;5.78;;;4.90;;
57810;SDS011;43640;47.550;7.590;2022-11-15T03:14:42;6.70;;;4.97;;
57810;SDS011;43640;47.550;7.590;2022-11-15T03:18:52;7.05;;;4.90;;
57810;SDS011;43640;47.550;7.590;2022-11-15T03:21:01;5.45;;;4.53;;
57810;SDS011;43640;47.550;7.590;2022-11-15T03:23:05;7.30;;;5.03;;
57810;SDS011;43640;47.550;7.590;2022-11-15T03:25:16;7.15;;;5.20;;
57810;SDS011;43640;47.550;7.590;2022-11-15T03:27:19;5.57;;;4.63;;
57810;SDS011;43640;47.550;7.590;2022-11-15T03:29:32;6.38;;;4.78;;
57810;SDS011;43640;47.550;7.590;2022-11-15T03:31:34;7.28;;;5.22;;
57810;SDS011;43640;47.550;7.590;2022-11-15T03:33:57;9.48;;;5.38;;
57810;SDS011;43640;47.550;7.590;2022-11-15T03:36:05;6.60;;;5.75;;
57810;SDS011;43640;47.550;7.590;2022-11-15T03:38:20;7.70;;;5.57;;
57810;SDS011;43640;47.550;7.590;2022-11-15T03:40:36;8.48;;;6.07;;
57810;SDS011;43640;47.550;7.590;2022-11-15T03:42:43;7.78;;;5.90;;
57810;SDS011;43640;47.550;7.590;2022-11-15T03:47:16;8.35;;;6.30;;
57810;SDS011;43640;47.550;7.590;2022-11-15T03:51:33;8.77;;;6.28;;
57810;SDS011;43640;47.550;7.590;2022-11-15T03:53:34;7.25;;;5.90;;
57810;SDS011;43640;47.550;7.590;2022-11-15T03:55:36;8.15;;;6.18;;
57810;SDS011;43640;47.550;7.590;2022-11-15T03:57:54;9.30;;;6.88;;
57810;SDS011;43640;47.550;7.590;2022-11-15T03:59:57;7.47;;;6.13;;
57810;SDS011;43640;47.550;7.590;2022-11-15T04:02:05;7.53;;;5.78;;
57810;SDS011;43640;47.550;7.590;2022-11-15T04:04:07;7.72;;;5.93;;
57810;SDS011;43640;47.550;7.590;2022-11-15T04:06:08;8.00;;;5.95;;
57810;SDS011;43640;47.550;7.590;2022-11-15T04:08:09;8.48;;;5.55;;
57810;SDS011;43640;47.550;7.590;2022-11-15T04:10:13;7.03;;;5.30;;
57810;SDS011;43640;47.550;7.590;2022-11-15T04:12:14;7.63;;;5.57;;
57810;SDS011;43640;47.550;7.590;2022-11-15T04:14:43;6.65;;;5.32;;
57810;SDS011;43640;47.550;7.590;2022-11-15T04:17:04;5.97;;;5.38;;
57810;SDS011;43640;47.550;7.590;2022-11-15T04:19:05;7.18;;;5.50;;
57810;SDS011;43640;47.550;7.590;2022-11-15T04:21:28;8.02;;;5.72;;
57810;SDS011;43640;47.550;7.590;2022-11-15T04:23:48;6.97;;;5.50;;
57810;SDS011;43640;47.550;7.590;2022-11-15T04:25:56;6.63;;;5.25;;
57810;SDS011;43640;47.550;7.590;2022-11-15T04:27:57;7.20;;;5.40;;
57810;SDS011;43640;47.550;7.590;2022-11-15T04:29:59;9.10;;;5.10;;
57810;SDS011;43640;47.550;7.590;2022-11-15T04:32:01;9.27;;;5.40;;
57810;SDS011;43640;47.550;7.590;2022-11-15T04:34:05;6.88;;;5.45;;
57810;SDS011;43640;47.550;7.590;2022-11-15T04:36:06;7.93;;;5.28;;
57810;SDS011;43640;47.550;7.590;2022-11-15T04:38:26;6.00;;;5.20;;
57810;SDS011;43640;47.550;7.590;2022-11-15T04:40:41;8.30;;;5.28;;
57810;SDS011;43640;47.550;7.590;2022-11-15T04:42:43;7.10;;;5.25;;
57810;SDS011;43640;47.550;7.590;2022-11-15T04:44:44;7.30;;;5.53;;
57810;SDS011;43640;47.550;7.590;2022-11-15T04:46:45;9.35;;;6.35;;
57810;SDS011;43640;47.550;7.590;2022-11-15T04:48:47;7.15;;;6.32;;
57810;SDS011;43640;47.550;7.590;2022-11-15T04:50:48;7.10;;;5.85;;
57810;SDS011;43640;47.550;7.590;2022-11-15T04:52:53;7.15;;;6.45;;
57810;SDS011;43640;47.550;7.590;2022-11-15T04:54:54;7.40;;;6.53;;
57810;SDS011;43640;47.550;7.590;2022-11-15T04:56:58;9.20;;;7.13;;
57810;SDS011;43640;47.550;7.590;2022-11-15T04:59:00;8.35;;;6.88;;
57810;SDS011;43640;47.550;7.590;2022-11-15T05:01:08;9.07;;;6.90;;
57810;SDS011;43640;47.550;7.590;2022-11-15T05:03:15;7.93;;;6.82;;
57810;SDS011;43640;47.550;7.590;2022-11-15T05:05:41;9.10;;;7.63;;
57810;SDS011;43640;47.550;7.590;2022-11-15T05:07:42;9.13;;;7.15;;
57810;SDS011;43640;47.550;7.590;2022-11-15T05:09:43;9.43;;;7.18;;
57810;SDS011;43640;47.550;7.590;2022-11-15T05:11:45;9.30;;;6.93;;
57810;SDS011;43640;47.550;7.590;2022-11-15T05:13:46;11.27;;;7.03;;
57810;SDS011;43640;47.550;7.590;2022-11-15T05:15:48;8.82;;;6.75;;
57810;SDS011;43640;47.550;7.590;2022-11-15T05:17:49;9.30;;;7.25;;
57810;SDS011;43640;47.550;7.590;2022-11-15T05:19:50;8.85;;;6.75;;
57810;SDS011;43640;47.550;7.590;2022-11-15T05:22:06;9.00;;;7.25;;
57810;SDS011;43640;47.550;7.590;2022-11-15T05:24:09;8.07;;;6.68;;
57810;SDS011;43640;47.550;7.590;2022-11-15T05:26:11;9.10;;;7.10;;
57810;SDS011;43640;47.550;7.590;2022-11-15T05:28:18;9.50;;;6.10;;
57810;SDS011;43640;47.550;7.590;2022-11-15T05:30:19;8.85;;;6.90;;
57810;SDS011;43640;47.550;7.590;2022-11-15T05:32:21;8.85;;;7.03;;
57810;SDS011;43640;47.550;7.590;2022-11-15T05:34:25;9.18;;;7.18;;
57810;SDS011;43640;47.550;7.590;2022-11-15T05:36:46;10.48;;;7.65;;
57810;SDS011;43640;47.550;7.590;2022-11-15T05:38:47;10.00;;;6.80;;
57810;SDS011;43640;47.550;7.590;2022-11-15T05:40:55;10.02;;;6.70;;
57810;SDS011;43640;47.550;7.590;2022-11-15T05:42:56;10.82;;;6.93;;
57810;SDS011;43640;47.550;7.590;2022-11-15T05:44:58;10.32;;;6.95;;
57810;SDS011;43640;47.550;7.590;2022-11-15T05:47:00;10.88;;;6.80;;
57810;SDS011;43640;47.550;7.590;2022-11-15T05:49:04;9.52;;;6.90;;
57810;SDS011;43640;47.550;7.590;2022-11-15T05:51:12;11.00;;;7.20;;
57810;SDS011;43640;47.550;7.590;2022-11-15T05:53:16;8.93;;;7.30;;
57810;SDS011;43640;47.550;7.590;2022-11-15T05:55:22;9.15;;;7.40;;
57810;SDS011;43640;47.550;7.590;2022-11-15T05:57:26;9.38;;;7.18;;
57810;SDS011;43640;47.550;7.590;2022-11-15T05:59:29;7.88;;;6.50;;
57810;SDS011;43640;47.550;7.590;2022-11-15T06:01:30;10.32;;;7.05;;
57810;SDS011;43640;47.550;7.590;2022-11-15T06:03:36;11.85;;;7.50;;
57810;SDS011;43640;47.550;7.590;2022-11-15T06:05:38;10.43;;;7.03;;
57810;SDS011;43640;47.550;7.590;2022-11-15T06:07:39;11.60;;;7.35;;
57810;SDS011;43640;47.550;7.590;2022-11-15T06:09:41;9.93;;;7.32;;
57810;SDS011;43640;47.550;7.590;2022-11-15T06:11:42;9.65;;;7.63;;
57810;SDS011;43640;47.550;7.590;2022-11-15T06:13:43;10.45;;;7.72;;
57810;SDS011;43640;47.550;7.590;2022-11-15T06:15:54;10.60;;;8.20;;
57810;SDS011;43640;47.550;7.590;2022-11-15T06:17:58;12.00;;;8.20;;
57810;SDS011;43640;47.550;7.590;2022-11-15T06:20:03;12.82;;;8.05;;
57810;SDS011;43640;47.550;7.590;2022-11-15T06:22:04;13.70;;;8.35;;
57810;SDS011;43640;47.550;7.590;2022-11-15T06:24:06;9.80;;;7.88;;
57810;SDS011;43640;47.550;7.590;2022-11-15T06:26:07;10.73;;;7.68;;
57810;SDS011;43640;47.550;7.590;2022-11-15T06:30:38;11.70;;;7.97;;
57810;SDS011;43640;47.550;7.590;2022-11-15T06:32:39;11.00;;;8.15;;
57810;SDS011;43640;47.550;7.590;2022-11-15T06:34:51;10.13;;;7.43;;
57810;SDS011;43640;47.550;7.590;2022-11-15T06:36:52;10.63;;;7.35;;
57810;SDS011;43640;47.550;7.590;2022-11-15T06:38:54;9.57;;;7.47;;
57810;SDS011;43640;47.550;7.590;2022-11-15T06:41:02;12.30;;;7.18;;
57810;SDS011;43640;47.550;7.590;2022-11-15T06:43:04;11.75;;;7.10;;
57810;SDS011;43640;47.550;7.590;2022-11-15T06:45:14;9.48;;;7.03;;
57810;SDS011;43640;47.550;7.590;2022-11-15T06:47:16;10.05;;;7.70;;
57810;SDS011;43640;47.550;7.590;2022-11-15T06:49:18;9.73;;;6.78;;
57810;SDS011;43640;47.550;7.590;2022-11-15T06:51:33;11.30;;;8.00;;
57810;SDS011;43640;47.550;7.590;2022-11-15T06:53:34;11.77;;;7.43;;
57810;SDS011;43640;47.550;7.590;2022-11-15T06:55:36;10.43;;;7.88;;
57810;SDS011;43640;47.550;7.590;2022-11-15T06:57:43;10.52;;;7.10;;
57810;SDS011;43640;47.550;7.590;2022-11-15T06:59:46;9.48;;;7.32;;
57810;SDS011;43640;47.550;7.590;2022-11-15T07:01:49;9.90;;;7.35;;
57810;SDS011;43640;47.550;7.590;2022-11-15T07:03:50;10.30;;;7.40;;
57810;SDS011;43640;47.550;7.590;2022-11-15T07:05:58;9.50;;;7.45;;
57810;SDS011;43640;47.550;7.590;2022-11-15T07:08:07;12.27;;;7.80;;
57810;SDS011;43640;47.550;7.590;2022-11-15T07:10:11;10.55;;;7.40;;
57810;SDS011;43640;47.550;7.590;2022-11-15T07:12:19;11.00;;;7.40;;
57810;SDS011;43640;47.550;7.590;2022-11-15T07:14:20;10.82;;;8.13;;
57810;SDS011;43640;47.550;7.590;2022-11-15T07:16:24;7.88;;;6.97;;
57810;SDS011;43640;47.550;7.590;2022-11-15T07:18:26;12.77;;;8.63;;
57810;SDS011;43640;47.550;7.590;2022-11-15T07:20:31;9.57;;;7.90;;
57810;SDS011;43640;47.550;7.590;2022-11-15T07:22:32;9.40;;;7.50;;
57810;SDS011;43640;47.550;7.590;2022-11-15T07:24:39;9.07;;;7.38;;
57810;SDS011;43640;47.550;7.590;2022-11-15T07:26:41;10.25;;;7.43;;
57810;SDS011;43640;47.550;7.590;2022-11-15T07:28:42;11.00;;;7.95;;
57810;SDS011;43640;47.550;7.590;2022-11-15T07:30:47;9.60;;;7.00;;
57810;SDS011;43640;47.550;7.590;2022-11-15T07:32:58;9.63;;;7.40;;
57810;SDS011;43640;47.550;7.590;2022-11-15T07:35:00;9.52;;;7.53;;
57810;SDS011;43640;47.550;7.590;2022-11-15T07:37:01;9.68;;;7.70;;
57810;SDS011;43640;47.550;7.590;2022-11-15T07:39:02;9.85;;;8.15;;
57810;SDS011;43640;47.550;7.590;2022-11-15T07:41:04;11.73;;;8.07;;
57810;SDS011;43640;47.550;7.590;2022-11-15T07:43:13;10.40;;;7.75;;
57810;SDS011;43640;47.550;7.590;2022-11-15T07:45:21;9.77;;;7.90;;
57810;SDS011;43640;47.550;7.590;2022-11-15T07:47:30;11.48;;;7.80;;
57810;SDS011;43640;47.550;7.590;2022-11-15T07:49:37;9.68;;;7.25;;
57810;SDS011;43640;47.550;7.590;2022-11-15T07:51:38;11.10;;;7.72;;
57810;SDS011;43640;47.550;7.590;2022-11-15T07:53:43;13.25;;;9.27;;
57810;SDS011;43640;47.550;7.590;2022-11-15T07:55:44;14.15;;;7.95;;
57810;SDS011;43640;47.550;7.590;2022-11-15T07:57:49;10.45;;;8.00;;
57810;SDS011;43640;47.550;7.590;2022-11-15T07:59:56;11.07;;;7.90;;
57810;SDS011;43640;47.550;7.590;2022-11-15T08:01:57;11.63;;;7.93;;
57810;SDS011;43640;47.550;7.590;2022-11-15T08:04:05;12.10;;;7.95;;
57810;SDS011;43640;47.550;7.590;2022-11-15T08:06:06;9.82;;;7.90;;
57810;SDS011;43640;47.550;7.590;2022-11-15T08:08:13;11.85;;;8.80;;
57810;SDS011;43640;47.550;7.590;2022-11-15T08:10:21;11.38;;;7.95;;
57810;SDS011;43640;47.550;7.590;2022-11-15T08:12:22;13.20;;;8.40;;
57810;SDS011;43640;47.550;7.590;2022-11-15T08:14:32;12.27;;;7.78;;
57810;SDS011;43640;47.550;7.590;2022-11-15T08:16:37;10.55;;;8.35;;
57810;SDS011;43640;47.550;7.590;2022-11-15T08:18:38;12.18;;;8.05;;
57810;SDS011;43640;47.550;7.590;2022-11-15T08:20:40;10.27;;;8.48;;
57810;SDS011;43640;47.550;7.590;2022-11-15T08:22:41;8.27;;;7.43;;
57810;SDS011;43640;47.550;7.590;2022-11-15T08:24:49;9.00;;;7.68;;
57810;SDS011;43640;47.550;7.590;2022-11-15T08:26:50;9.13;;;7.55;;
57810;SDS011;43640;47.550;7.590;2022-11-15T08:28:57;10.40;;;7.93;;
57810;SDS011;43640;47.550;7.590;2022-11-15T08:30:59;10.05;;;8.05;;
57810;SDS011;43640;47.550;7.590;2022-11-15T08:33:00;9.60;;;7.38;;
57810;SDS011;43640;47.550;7.590;2022-11-15T08:35:02;9.60;;;7.75;;
57810;SDS011;43640;47.550;7.590;2022-11-15T08:37:06;8.95;;;7.30;;
57810;SDS011;43640;47.550;7.590;2022-11-15T08:39:10;14.88;;;9.35;;
57810;SDS011;43640;47.550;7.590;2022-11-15T08:41:33;12.82;;;9.52;;
57810;SDS011;43640;47.550;7.590;2022-11-15T08:43:36;9.57;;;7.03;;
57810;SDS011;43640;47.550;7.590;2022-11-15T08:45:37;9.88;;;7.05;;
57810;SDS011;43640;47.550;7.590;2022-11-15T08:47:39;9.25;;;6.45;;
57810;SDS011;43640;47.550;7.590;2022-11-15T08:49:46;17.55;;;12.07;;
57810;SDS011;43640;47.550;7.590;2022-11-15T08:51:56;12.70;;;8.38;;
57810;SDS011;43640;47.550;7.590;2022-11-15T08:53:58;9.80;;;6.85;;
57810;SDS011;43640;47.550;7.590;2022-11-15T08:56:12;10.38;;;7.03;;
57810;SDS011;43640;47.550;7.590;2022-11-15T08:58:13;8.35;;;6.75;;
57810;SDS011;43640;47.550;7.590;2022-11-15T09:00:20;8.75;;;6.63;;
57810;SDS011;43640;47.550;7.590;2022-11-15T09:02:22;8.10;;;6.72;;
57810;SDS011;43640;47.550;7.590;2022-11-15T09:04:23;7.97;;;6.05;;
57810;SDS011;43640;47.550;7.590;2022-11-15T09:06:25;9.75;;;6.20;;
57810;SDS011;43640;47.550;7.590;2022-11-15T09:08:29;8.02;;;5.90;;
57810;SDS011;43640;47.550;7.590;2022-11-15T09:10:49;10.18;;;6.72;;
57810;SDS011;43640;47.550;7.590;2022-11-15T09:12:50;9.32;;;6.82;;
57810;SDS011;43640;47.550;7.590;2022-11-15T09:14:52;8.32;;;7.03;;
57810;SDS011;43640;47.550;7.590;2022-11-15T09:16:59;8.75;;;6.70;;
57810;SDS011;43640;47.550;7.590;2022-11-15T09:19:09;9.38;;;7.10;;
57810;SDS011;43640;47.550;7.590;2022-11-15T09:21:12;10.50;;;6.93;;
57810;SDS011;43640;47.550;7.590;2022-11-15T09:23:13;8.45;;;6.63;;
57810;SDS011;43640;47.550;7.590;2022-11-15T09:25:14;8.82;;;6.32;;
57810;SDS011;43640;47.550;7.590;2022-11-15T09:27:16;8.70;;;5.72;;
57810;SDS011;43640;47.550;7.590;2022-11-15T09:29:24;7.97;;;5.55;;
57810;SDS011;43640;47.550;7.590;2022-11-15T09:31:26;9.35;;;6.82;;
57810;SDS011;43640;47.550;7.590;2022-11-15T09:33:33;8.07;;;6.32;;
57810;SDS011;43640;47.550;7.590;2022-11-15T09:35:35;11.27;;;7.20;;
57810;SDS011;43640;47.550;7.590;2022-11-15T09:37:37;9.90;;;7.63;;
57810;SDS011;43640;47.550;7.590;2022-11-15T09:39:38;9.20;;;6.75;;
57810;SDS011;43640;47.550;7.590;2022-11-15T09:46:19;8.65;;;7.40;;
57810;SDS011;43640;47.550;7.590;2022-11-15T09:48:38;8.93;;;7.07;;
57810;SDS011;43640;47.550;7.590;2022-11-15T09:50:55;9.25;;;7.15;;
57810;SDS011;43640;47.550;7.590;2022-11-15T09:53:09;10.68;;;7.50;;
57810;SDS011;43640;47.550;7.590;2022-11-15T09:55:29;11.50;;;7.70;;
57810;SDS011;43640;47.550;7.590;2022-11-15T10:03:50;10.40;;;7.35;;
57810;SDS011;43640;47.550;7.590;2022-11-15T10:06:02;10.00;;;7.57;;
57810;SDS011;43640;47.550;7.590;2022-11-15T10:10:32;9.80;;;7.45;;
57810;SDS011;43640;47.550;7.590;2022-11-15T10:12:36;7.68;;;6.50;;
57810;SDS011;43640;47.550;7.590;2022-11-15T10:14:40;8.55;;;7.07;;
57810;SDS011;43640;47.550;7.590;2022-11-15T10:19:16;9.65;;;7.20;;
57810;SDS011;43640;47.550;7.590;2022-11-15T10:23:38;10.55;;;7.57;;
57810;SDS011;43640;47.550;7.590;2022-11-15T10:25:57;10.05;;;7.25;;
57810;SDS011;43640;47.550;7.590;2022-11-15T10:28:10;9.75;;;7.40;;
57810;SDS011;43640;47.550;7.590;2022-11-15T10:30:16;11.18;;;7.70;;
57810;SDS011;43640;47.550;7.590;2022-11-15T10:32:19;10.40;;;7.18;;
57810;SDS011;43640;47.550;7.590;2022-11-15T10:34:23;10.93;;;7.82;;
57810;SDS011;43640;47.550;7.590;2022-11-15T10:36:26;12.85;;;8.55;;
57810;SDS011;43640;47.550;7.590;2022-11-15T10:38:27;11.73;;;7.68;;
57810;SDS011;43640;47.550;7.590;2022-11-15T10:40:29;11.95;;;8.18;;
57810;SDS011;43640;47.550;7.590;2022-11-15T10:42:31;9.20;;;7.63;;
57810;SDS011;43640;47.550;7.590;2022-11-15T10:44:32;10.88;;;7.10;;
57810;SDS011;43640;47.550;7.590;2022-11-15T10:51:22;9.43;;;7.40;;
57810;SDS011;43640;47.550;7.590;2022-11-15T10:53:30;8.35;;;5.97;;
57810;SDS011;43640;47.550;7.590;2022-11-15T10:55:41;8.15;;;7.07;;
57810;SDS011;43640;47.550;7.590;2022-11-15T11:02:40;8.40;;;6.97;;
57810;SDS011;43640;47.550;7.590;2022-11-15T11:04:51;9.55;;;6.40;;
57810;SDS011;43640;47.550;7.590;2022-11-15T11:07:01;8.82;;;6.28;;
57810;SDS011;43640;47.550;7.590;2022-11-15T11:11:13;10.85;;;7.43;;
57810;SDS011;43640;47.550;7.590;2022-11-15T11:13:15;8.80;;;6.50;;
57810;SDS011;43640;47.550;7.590;2022-11-15T11:15:26;9.68;;;6.78;;
57810;SDS011;43640;47.550;7.590;2022-11-15T11:22:06;7.93;;;5.82;;
57810;SDS011;43640;47.550;7.590;2022-11-15T11:24:13;10.77;;;6.22;;
57810;SDS011;43640;47.550;7.590;2022-11-15T11:26:46;9.20;;;6.78;;
57810;SDS011;43640;47.550;7.590;2022-11-15T11:29:02;10.13;;;7.10;;
57810;SDS011;43640;47.550;7.590;2022-11-15T11:33:43;12.20;;;9.20;;
57810;SDS011;43640;47.550;7.590;2022-11-15T11:37:54;14.55;;;8.48;;
57810;SDS011;43640;47.550;7.590;2022-11-15T11:44:23;4.97;;;4.03;;
57810;SDS011;43640;47.550;7.590;2022-11-15T11:48:52;9.18;;;5.75;;
57810;SDS011;43640;47.550;7.590;2022-11-15T11:51:27;7.40;;;5.88;;
57810;SDS011;43640;47.550;7.590;2022-11-15T11:55:52;8.20;;;6.00;;
57810;SDS011;43640;47.550;7.590;2022-11-15T12:02:16;8.27;;;5.40;;
57810;SDS011;43640;47.550;7.590;2022-11-15T12:04:29;9.40;;;7.05;;
57810;SDS011;43640;47.550;7.590;2022-11-15T12:06:35;10.27;;;7.50;;
57810;SDS011;43640;47.550;7.590;2022-11-15T12:10:43;7.80;;;5.22;;
57810;SDS011;43640;47.550;7.590;2022-11-15T12:12:55;7.28;;;5.22;;
57810;SDS011;43640;47.550;7.590;2022-11-15T12:15:16;7.88;;;4.90;;
57810;SDS011;43640;47.550;7.590;2022-11-15T12:17:25;8.18;;;5.28;;
57810;SDS011;43640;47.550;7.590;2022-11-15T12:19:28;7.63;;;5.18;;
57810;SDS011;43640;47.550;7.590;2022-11-15T12:23:50;6.15;;;4.18;;
57810;SDS011;43640;47.550;7.590;2022-11-15T12:26:00;5.00;;;4.40;;
57810;SDS011;43640;47.550;7.590;2022-11-15T12:30:26;6.93;;;4.85;;
57810;SDS011;43640;47.550;7.590;2022-11-15T12:32:33;6.55;;;4.63;;
57810;SDS011;43640;47.550;7.590;2022-11-15T12:34:37;5.10;;;4.47;;
57810;SDS011;43640;47.550;7.590;2022-11-15T12:36:44;7.68;;;4.72;;
57810;SDS011;43640;47.550;7.590;2022-11-15T12:45:34;6.82;;;4.80;;
57810;SDS011;43640;47.550;7.590;2022-11-15T12:47:43;7.20;;;5.10;;
57810;SDS011;43640;47.550;7.590;2022-11-15T12:49:45;5.80;;;4.50;;
57810;SDS011;43640;47.550;7.590;2022-11-15T12:53:48;6.97;;;5.10;;
57810;SDS011;43640;47.550;7.590;2022-11-15T13:02:35;7.88;;;5.03;;
57810;SDS011;43640;47.550;7.590;2022-11-15T13:04:36;6.65;;;4.45;;
57810;SDS011;43640;47.550;7.590;2022-11-15T13:06:51;6.25;;;4.70;;
57810;SDS011;43640;47.550;7.590;2022-11-15T13:09:03;7.43;;;5.20;;
57810;SDS011;43640;47.550;7.590;2022-11-15T13:13:44;8.60;;;5.35;;
57810;SDS011;43640;47.550;7.590;2022-11-15T13:17:54;5.78;;;4.80;;
57810;SDS011;43640;47.550;7.590;2022-11-15T13:22:12;5.60;;;4.97;;
57810;SDS011;43640;47.550;7.590;2022-11-15T13:24:37;5.78;;;4.60;;
57810;SDS011;43640;47.550;7.590;2022-11-15T13:26:47;6.65;;;5.03;;
57810;SDS011;43640;47.550;7.590;2022-11-15T13:28:49;6.43;;;4.40;;
57810;SDS011;43640;47.550;7.590;2022-11-15T13:30:53;7.90;;;4.80;;
57810;SDS011;43640;47.550;7.590;2022-11-15T13:33:09;5.07;;;4.05;;
57810;SDS011;43640;47.550;7.590;2022-11-15T13:35:18;5.28;;;3.95;;
57810;SDS011;43640;47.550;7.590;2022-11-15T13:37:33;7.15;;;4.80;;
57810;SDS011;43640;47.550;7.590;2022-11-15T13:39:44;8.40;;;6.18;;
57810;SDS011;43640;47.550;7.590;2022-11-15T13:41:49;5.85;;;4.60;;
57810;SDS011;43640;47.550;7.590;2022-11-15T13:43:57;5.68;;;4.85;;
57810;SDS011;43640;47.550;7.590;2022-11-15T13:48:22;5.80;;;4.30;;
57810;SDS011;43640;47.550;7.590;2022-11-15T13:50:28;6.85;;;4.20;;
57810;SDS011;43640;47.550;7.590;2022-11-15T13:52:35;5.07;;;4.07;;
57810;SDS011;43640;47.550;7.590;2022-11-15T13:57:05;5.63;;;3.67;;
57810;SDS011;43640;47.550;7.590;2022-11-15T14:01:28;7.32;;;4.40;;
57810;SDS011;43640;47.550;7.590;2022-11-15T14:03:32;6.05;;;4.47;;
57810;SDS011;43640;47.550;7.590;2022-11-15T14:05:43;5.22;;;4.20;;
57810;SDS011;43640;47.550;7.590;2022-11-15T14:07:57;7.38;;;4.32;;
57810;SDS011;43640;47.550;7.590;2022-11-15T14:12:32;6.47;;;3.58;;
57810;SDS011;43640;47.550;7.590;2022-11-15T14:14:34;5.53;;;4.15;;
57810;SDS011;43640;47.550;7.590;2022-11-15T14:16:46;6.05;;;4.95;;
57810;SDS011;43640;47.550;7.590;2022-11-15T14:18:51;5.95;;;5.05;;
57810;SDS011;43640;47.550;7.590;2022-11-15T14:21:05;4.82;;;4.25;;
57810;SDS011;43640;47.550;7.590;2022-11-15T14:23:40;7.80;;;4.90;;
57810;SDS011;43640;47.550;7.590;2022-11-15T14:25:34;6.07;;;4.65;;
57810;SDS011;43640;47.550;7.590;2022-11-15T14:27:39;6.93;;;5.05;;
57810;SDS011;43640;47.550;7.590;2022-11-15T14:29:41;6.18;;;5.00;;
57810;SDS011;43640;47.550;7.590;2022-11-15T14:31:42;7.60;;;4.93;;
57810;SDS011;43640;47.550;7.590;2022-11-15T14:33:47;5.68;;;4.05;;
57810;SDS011;43640;47.550;7.590;2022-11-15T14:35:49;6.00;;;4.72;;
57810;SDS011;43640;47.550;7.590;2022-11-15T14:37:50;7.75;;;4.15;;
57810;SDS011;43640;47.550;7.590;2022-11-15T14:40:06;7.72;;;4.97;;
57810;SDS011;43640;47.550;7.590;2022-11-15T14:42:13;6.80;;;4.80;;
57810;SDS011;43640;47.550;7.590;2022-11-15T14:44:17;5.32;;;4.47;;
57810;SDS011;43640;47.550;7.590;2022-11-15T14:46:21;5.70;;;4.53;;
57810;SDS011;43640;47.550;7.590;2022-11-15T14:48:31;6.50;;;4.45;;